Time;durP1;ratioP1;P1;durP2;ratioP2;P2;SDS_P1;SDS_P2;PMS_P1;PMS_P2;Temp;Humidity;BMP_temperature;BMP_pressure;BME280_temperature;BME280_humidity;BME280_pressure;Samples;Min_cycle;Max_cycle;Signal;HPM_P1;HPM_P2
2022/09/26 00:01:20;;;;;;;22.10;20.77;;;12.80;92.00;;;;;;5023360;28;20501;-71
2022/09/26 00:03:49;;;;;;;21.10;19.40;;;12.90;91.90;;;;;;5024085;28;20838;-71
2022/09/26 00:06:17;;;;;;;21.60;20.30;;;12.80;91.90;;;;;;5027171;28;20453;-71
2022/09/26 00:08:45;;;;;;;23.03;21.23;;;12.80;92.10;;;;;;5021893;28;20467;-71
2022/09/26 00:11:15;;;;;;;22.20;20.80;;;12.80;92.10;;;;;;5022515;28;20454;-72
2022/09/26 00:13:43;;;;;;;22.60;21.03;;;12.80;92.00;;;;;;5031516;28;20477;-72
2022/09/26 00:16:11;;;;;;;21.30;19.80;;;12.80;92.10;;;;;;5025422;28;20474;-73
2022/09/26 00:18:40;;;;;;;20.57;19.27;;;12.70;92.60;;;;;;5023869;28;20471;-73
2022/09/26 00:21:09;;;;;;;21.90;20.40;;;12.60;93.00;;;;;;5021489;28;20468;-73
2022/09/26 00:23:37;;;;;;;21.40;20.00;;;12.60;93.20;;;;;;5024998;28;20480;-73
2022/09/26 00:26:05;;;;;;;23.03;21.30;;;12.60;93.30;;;;;;5027886;28;20456;-73
2022/09/26 00:28:32;;;;;;;21.90;20.40;;;12.50;93.40;;;;;;5025651;28;20823;-72
2022/09/26 00:31:03;;;;;;;21.70;20.20;;;12.50;93.40;;;;;;5023892;28;20472;-73
2022/09/26 00:33:30;;;;;;;21.27;19.67;;;12.50;93.40;;;;;;5022690;28;20563;-73
2022/09/26 00:35:59;;;;;;;22.17;20.80;;;12.40;93.60;;;;;;5027544;28;20983;-73
2022/09/26 00:38:26;;;;;;;21.77;20.30;;;12.40;93.60;;;;;;5029060;28;20997;-74
2022/09/26 00:40:54;;;;;;;22.63;21.13;;;12.30;93.70;;;;;;5020120;28;20467;-73
2022/09/26 00:43:32;;;;;;;22.30;20.70;;;12.30;93.70;;;;;;5025622;28;20854;-72
2022/09/26 00:46:03;;;;;;;22.20;20.50;;;12.20;93.90;;;;;;5024750;28;20465;-73
2022/09/26 00:48:31;;;;;;;22.80;21.20;;;12.20;93.90;;;;;;5024032;28;20458;-73
2022/09/26 00:51:00;;;;;;;22.23;20.53;;;12.10;94.20;;;;;;5026165;28;20950;-72
2022/09/26 00:53:33;;;;;;;23.37;21.50;;;12.10;94.30;;;;;;5020010;28;21019;-72
2022/09/26 00:56:05;;;;;;;23.07;21.20;;;12.10;94.20;;;;;;5022225;28;20458;-72
2022/09/26 00:58:38;;;;;;;23.90;22.00;;;12.10;94.20;;;;;;5030343;28;20506;-72
2022/09/26 01:01:06;;;;;;;23.17;21.27;;;12.00;94.20;;;;;;5017352;28;20546;-72
2022/09/26 01:03:35;;;;;;;23.00;21.20;;;12.00;94.10;;;;;;5033574;28;21001;-73
2022/09/26 01:06:03;;;;;;;22.07;20.57;;;11.90;94.10;;;;;;5017365;28;20448;-72
2022/09/26 01:08:35;;;;;;;22.57;20.77;;;11.90;94.60;;;;;;5031868;28;20456;-73
2022/09/26 01:11:03;;;;;;;22.40;20.90;;;11.80;94.60;;;;;;5025637;28;20830;-73
2022/09/26 01:13:32;;;;;;;20.93;19.53;;;11.70;94.80;;;;;;5020931;28;22218;-72
2022/09/26 01:15:59;;;;;;;23.30;21.40;;;11.70;94.60;;;;;;5022654;28;20449;-73
2022/09/26 01:18:27;;;;;;;23.87;22.07;;;11.70;94.60;;;;;;5023775;28;20479;-72
2022/09/26 01:21:41;;;;;;;22.53;20.70;;;11.70;94.60;;;;;;5023110;28;20468;-73
2022/09/26 01:24:35;;;;;;;21.80;20.40;;;11.70;94.60;;;;;;5021473;28;20479;-73
2022/09/26 01:27:15;;;;;;;21.90;20.40;;;11.60;94.60;;;;;;5030763;28;20475;-73
2022/09/26 01:30:07;;;;;;;21.73;20.30;;;11.60;94.60;;;;;;5031260;28;20459;-71
2022/09/26 01:32:58;;;;;;;22.10;20.53;;;11.50;94.90;;;;;;5030661;28;20482;-71
2022/09/26 01:35:57;;;;;;;21.83;20.33;;;11.40;94.90;;;;;;5029133;28;20460;-71
2022/09/26 01:38:32;;;;;;;21.30;19.87;;;11.40;95.20;;;;;;5031418;28;20685;-71
2022/09/26 01:41:11;;;;;;;21.53;20.03;;;11.30;95.20;;;;;;5031990;28;20587;-71
2022/09/26 01:43:49;;;;;;;20.13;18.63;;;11.30;95.30;;;;;;5030907;28;20482;-71
2022/09/26 01:46:28;;;;;;;21.43;19.93;;;11.30;95.00;;;;;;5028248;28;20667;-71
2022/09/26 01:49:01;;;;;;;20.87;19.27;;;11.30;95.10;;;;;;5027909;28;20459;-71
2022/09/26 01:51:35;;;;;;;20.20;18.80;;;11.20;95.00;;;;;;5031788;28;21131;-71
2022/09/26 01:54:08;;;;;;;22.90;21.40;;;11.20;95.00;;;;;;5026214;28;21838;-71
2022/09/26 01:56:38;;;;;;;21.90;20.30;;;11.20;95.20;;;;;;5029518;28;20542;-71
2022/09/26 01:59:09;;;;;;;22.10;20.53;;;11.20;95.40;;;;;;5035387;28;20462;-71
2022/09/26 02:01:40;;;;;;;20.60;19.10;;;11.20;95.30;;;;;;5039584;28;20470;-71
2022/09/26 02:04:12;;;;;;;21.23;19.73;;;11.20;95.30;;;;;;5031318;28;20479;-71
2022/09/26 02:06:44;;;;;;;21.13;19.73;;;11.20;95.30;;;;;;5030595;28;20466;-71
2022/09/26 02:09:16;;;;;;;21.07;19.60;;;11.20;95.30;;;;;;5032186;28;20836;-71
2022/09/26 02:11:48;;;;;;;21.60;20.10;;;11.20;95.30;;;;;;5031087;28;20467;-71
2022/09/26 02:14:20;;;;;;;22.10;20.70;;;11.20;95.20;;;;;;5030199;28;20478;-72
2022/09/26 02:16:50;;;;;;;20.77;19.17;;;11.30;95.30;;;;;;5032075;28;20510;-71
2022/09/26 02:19:22;;;;;;;20.63;19.33;;;11.30;95.20;;;;;;5036810;28;20972;-71
2022/09/26 02:21:50;;;;;;;22.63;21.07;;;11.30;94.90;;;;;;5038626;28;20562;-71
2022/09/26 02:24:17;;;;;;;20.97;19.67;;;11.30;94.90;;;;;;5037790;28;20475;-71
2022/09/26 02:26:44;;;;;;;22.53;21.13;;;11.30;94.90;;;;;;5031862;28;20464;-71
2022/09/26 02:29:13;;;;;;;22.60;21.00;;;11.30;94.70;;;;;;5034730;28;20453;-71
2022/09/26 02:31:47;;;;;;;22.03;20.63;;;11.30;94.50;;;;;;5026567;28;20459;-71
2022/09/26 02:34:15;;;;;;;26.47;24.77;;;11.30;94.60;;;;;;5030628;28;20479;-71
2022/09/26 02:36:43;;;;;;;22.63;21.13;;;11.30;94.80;;;;;;5025553;28;20543;-71
2022/09/26 02:39:10;;;;;;;49.90;47.47;;;11.30;94.60;;;;;;5037210;28;20464;-71
2022/09/26 02:41:46;;;;;;;23.60;22.00;;;11.30;94.70;;;;;;5023513;28;21125;-71
2022/09/26 02:44:28;;;;;;;33.63;31.67;;;11.30;94.60;;;;;;5037923;28;20472;-71
2022/09/26 02:47:15;;;;;;;21.83;20.43;;;11.30;94.50;;;;;;5023334;28;20486;-71
2022/09/26 02:49:59;;;;;;;23.50;21.77;;;11.20;94.60;;;;;;5031085;28;20464;-71
2022/09/26 02:52:36;;;;;;;20.90;19.50;;;11.20;94.60;;;;;;5026213;28;20471;-71
2022/09/26 02:55:12;;;;;;;25.63;24.00;;;11.20;94.80;;;;;;5028804;28;20455;-71
2022/09/26 02:57:47;;;;;;;24.23;22.83;;;11.20;94.70;;;;;;5027354;28;20483;-72
2022/09/26 03:00:18;;;;;;;27.33;25.63;;;11.20;94.70;;;;;;5030766;28;20459;-71
2022/09/26 03:02:50;;;;;;;26.10;24.40;;;11.20;94.70;;;;;;5026523;28;20476;-71
2022/09/26 03:05:21;;;;;;;25.13;23.73;;;11.20;94.70;;;;;;5025897;28;20464;-71
2022/09/26 03:07:52;;;;;;;24.40;22.80;;;11.30;94.60;;;;;;5028330;28;21004;-71
2022/09/26 03:10:20;;;;;;;22.63;21.33;;;11.30;94.70;;;;;;5028184;28;20471;-71
2022/09/26 03:12:49;;;;;;;28.67;26.57;;;11.30;94.40;;;;;;5029321;28;20479;-72
2022/09/26 03:15:18;;;;;;;21.40;20.00;;;11.30;94.30;;;;;;5027220;28;20451;-72
2022/09/26 03:17:50;;;;;;;21.20;20.00;;;11.30;94.40;;;;;;5024478;28;20460;-74
2022/09/26 03:20:20;;;;;;;22.93;21.30;;;11.30;94.20;;;;;;5026180;28;20825;-72
2022/09/26 03:22:48;;;;;;;41.63;39.43;;;11.30;94.30;;;;;;5026967;28;20506;-72
2022/09/26 03:25:17;;;;;;;34.07;32.30;;;11.30;94.20;;;;;;5027329;28;20552;-72
2022/09/26 03:27:45;;;;;;;36.87;34.50;;;11.30;94.20;;;;;;5027021;28;20934;-72
2022/09/26 03:30:14;;;;;;;33.87;32.17;;;11.30;93.90;;;;;;5027830;28;20451;-72
2022/09/26 03:32:40;;;;;;;24.03;22.53;;;11.40;94.00;;;;;;5026287;28;20978;-72
2022/09/26 03:35:08;;;;;;;23.47;22.17;;;11.40;93.80;;;;;;5027219;28;20455;-72
2022/09/26 03:37:37;;;;;;;22.90;21.70;;;11.40;93.60;;;;;;5025420;28;20460;-72
2022/09/26 03:40:04;;;;;;;23.73;22.23;;;11.30;93.60;;;;;;5023021;28;20456;-72
2022/09/26 03:42:32;;;;;;;41.17;38.37;;;11.40;93.10;;;;;;5027647;28;20831;-72
2022/09/26 03:44:59;;;;;;;26.30;24.87;;;11.40;93.30;;;;;;5025534;28;20478;-72
2022/09/26 03:47:26;;;;;;;22.97;21.47;;;11.40;93.30;;;;;;5021210;28;20844;-72
2022/09/26 03:49:53;;;;;;;23.93;22.20;;;11.30;93.60;;;;;;5031039;28;20464;-72
2022/09/26 03:52:20;;;;;;;23.17;21.80;;;11.30;93.80;;;;;;5025654;28;20460;-72
2022/09/26 03:54:48;;;;;;;32.30;30.70;;;11.30;93.60;;;;;;5031325;28;20456;-72
2022/09/26 03:57:16;;;;;;;38.37;35.97;;;11.30;93.40;;;;;;5028003;28;20455;-73
2022/09/26 03:59:43;;;;;;;26.00;24.60;;;11.30;93.60;;;;;;5026958;28;20481;-72
2022/09/26 04:02:11;;;;;;;34.10;32.50;;;11.30;93.80;;;;;;5030415;28;20460;-72
2022/09/26 04:04:38;;;;;;;21.13;19.83;;;11.30;93.60;;;;;;5024959;28;20830;-72
2022/09/26 04:07:05;;;;;;;19.80;18.70;;;11.30;93.40;;;;;;5026541;28;20458;-72
2022/09/26 04:09:31;;;;;;;22.80;21.40;;;11.20;93.60;;;;;;5025113;28;20476;-70
2022/09/26 04:12:00;;;;;;;30.43;28.70;;;11.20;93.60;;;;;;5028151;28;20467;-71
2022/09/26 04:14:27;;;;;;;23.57;22.17;;;11.20;93.80;;;;;;5025856;28;20471;-70
2022/09/26 04:16:53;;;;;;;30.17;28.17;;;11.20;93.90;;;;;;5025132;28;20467;-71
2022/09/26 04:19:20;;;;;;;23.67;22.40;;;11.20;93.80;;;;;;5023747;28;20466;-71
2022/09/26 04:21:47;;;;;;;31.83;30.33;;;11.10;94.00;;;;;;5021367;28;20452;-71
2022/09/26 04:24:15;;;;;;;20.40;19.20;;;11.10;94.00;;;;;;5031089;28;20479;-71
2022/09/26 04:26:44;;;;;;;22.77;21.27;;;11.10;93.80;;;;;;5025551;28;20460;-71
2022/09/26 04:29:12;;;;;;;24.93;23.63;;;11.20;93.40;;;;;;5018145;28;20468;-71
2022/09/26 04:31:39;;;;;;;23.40;22.00;;;11.10;93.30;;;;;;5022458;28;20997;-71
2022/09/26 04:34:06;;;;;;;22.43;21.03;;;11.10;93.20;;;;;;5029403;28;20488;-71
2022/09/26 04:36:33;;;;;;;21.80;20.43;;;11.10;93.20;;;;;;5025268;28;20462;-71
2022/09/26 04:39:00;;;;;;;21.30;20.10;;;11.00;93.10;;;;;;5023382;28;20464;-71
2022/09/26 04:41:28;;;;;;;22.50;21.20;;;11.00;93.20;;;;;;5019809;28;20463;-71
2022/09/26 04:43:57;;;;;;;25.40;24.00;;;11.00;93.20;;;;;;5032696;28;20898;-72
2022/09/26 04:46:27;;;;;;;24.90;23.60;;;10.90;93.30;;;;;;5021857;28;20453;-71
2022/09/26 04:48:56;;;;;;;26.83;25.30;;;10.90;93.20;;;;;;5025932;28;20815;-72
2022/09/26 04:51:24;;;;;;;24.73;23.23;;;10.90;93.10;;;;;;5025441;28;20456;-71
2022/09/26 04:53:51;;;;;;;20.33;18.90;;;10.90;92.90;;;;;;5023559;28;20665;-71
2022/09/26 04:56:20;;;;;;;23.53;22.33;;;10.90;92.80;;;;;;5024203;28;20469;-71
2022/09/26 04:58:47;;;;;;;20.63;19.40;;;10.90;92.80;;;;;;5016759;28;20468;-71
2022/09/26 05:01:15;;;;;;;19.37;18.17;;;10.80;93.00;;;;;;5023142;28;20558;-72
2022/09/26 05:03:44;;;;;;;26.37;24.97;;;10.80;93.10;;;;;;5027826;28;20478;-71
2022/09/26 05:06:14;;;;;;;19.50;18.00;;;10.80;93.20;;;;;;5017517;28;20455;-71
2022/09/26 05:08:45;;;;;;;26.37;24.77;;;10.70;93.40;;;;;;5028235;28;20828;-72
2022/09/26 05:11:12;;;;;;;21.37;19.80;;;10.70;93.10;;;;;;5020581;28;20561;-70
2022/09/26 05:13:39;;;;;;;22.37;21.07;;;10.70;93.40;;;;;;5024327;28;20483;-72
2022/09/26 05:16:08;;;;;;;29.10;27.30;;;10.70;93.00;;;;;;5025913;28;20463;-73
2022/09/26 05:18:36;;;;;;;31.30;29.60;;;10.70;93.10;;;;;;5021448;28;20471;-71
2022/09/26 05:21:06;;;;;;;19.60;18.60;;;10.70;93.30;;;;;;5023948;28;20457;-71
2022/09/26 05:26:24;;;;;;;25.37;23.97;;;10.60;93.60;;;;;;5021419;28;21019;-71
2022/09/26 05:28:52;;;;;;;18.50;17.40;;;10.60;93.80;;;;;;5017879;28;20760;-71
2022/09/26 05:31:21;;;;;;;21.40;19.97;;;10.60;93.80;;;;;;5023670;28;20791;-71
2022/09/26 05:33:50;;;;;;;22.30;21.00;;;10.60;93.80;;;;;;5028384;28;20468;-71
2022/09/26 05:36:18;;;;;;;18.50;17.13;;;10.60;94.00;;;;;;5022262;28;20464;-71
2022/09/26 05:38:45;;;;;;;19.43;17.93;;;10.70;94.00;;;;;;5027663;28;20499;-71
2022/09/26 05:41:12;;;;;;;20.53;19.37;;;10.60;94.00;;;;;;5025510;28;20524;-73
2022/09/26 05:43:39;;;;;;;33.10;31.50;;;10.70;94.10;;;;;;5026740;28;20529;-72
2022/09/26 05:46:07;;;;;;;20.50;19.10;;;10.70;93.80;;;;;;5022697;28;20875;-72
2022/09/26 05:48:36;;;;;;;29.07;27.37;;;10.70;93.70;;;;;;5032595;28;20467;-73
2022/09/26 05:51:04;;;;;;;25.83;24.33;;;10.80;93.50;;;;;;5017686;28;20458;-72
2022/09/26 05:53:33;;;;;;;25.57;23.93;;;10.90;93.20;;;;;;5034170;28;20725;-73
2022/09/26 05:56:00;;;;;;;24.83;23.13;;;10.90;92.90;;;;;;5025470;28;20468;-70
2022/09/26 05:58:31;;;;;;;27.07;25.67;;;11.00;93.00;;;;;;5022535;28;20795;-73
2022/09/26 06:01:02;;;;;;;32.10;30.60;;;11.00;92.70;;;;;;5022387;28;20456;-72
2022/09/26 06:03:33;;;;;;;21.77;20.37;;;11.10;92.80;;;;;;5021676;28;20891;-70
2022/09/26 06:06:02;;;;;;;19.57;18.20;;;11.20;92.30;;;;;;5020503;28;20452;-72
2022/09/26 06:08:29;;;;;;;22.30;21.00;;;11.30;92.20;;;;;;5024175;28;20456;-71
2022/09/26 06:11:01;;;;;;;24.77;23.30;;;11.40;91.80;;;;;;5025843;28;20464;-73
2022/09/26 06:13:29;;;;;;;22.33;21.07;;;11.50;91.50;;;;;;5025540;28;20472;-72
2022/09/26 06:15:56;;;;;;;31.43;29.77;;;11.60;90.80;;;;;;5026287;28;20488;-72
2022/09/26 06:18:23;;;;;;;26.20;24.90;;;11.70;90.70;;;;;;5027858;28;20471;-73
2022/09/26 06:20:50;;;;;;;22.17;20.67;;;11.80;90.10;;;;;;5027935;28;20459;-72
2022/09/26 06:23:17;;;;;;;32.57;30.77;;;11.80;89.00;;;;;;5030335;28;20476;-73
2022/09/26 06:25:43;;;;;;;26.67;25.27;;;11.80;89.10;;;;;;5026958;28;20463;-73
2022/09/26 06:28:12;;;;;;;28.50;26.80;;;11.90;88.40;;;;;;5025094;28;20456;-73
2022/09/26 06:30:39;;;;;;;19.37;18.37;;;12.00;88.80;;;;;;5026521;28;20456;-72
2022/09/26 06:33:06;;;;;;;20.80;19.43;;;12.00;89.40;;;;;;5024058;28;20832;-73
2022/09/26 06:35:33;;;;;;;26.37;25.07;;;12.20;88.50;;;;;;5030724;28;21209;-72
2022/09/26 06:38:00;;;;;;;20.50;19.40;;;12.30;87.70;;;;;;5037201;28;20487;-70
2022/09/26 06:40:27;;;;;;;29.50;27.70;;;12.40;87.30;;;;;;5032747;28;20466;-75
2022/09/26 06:42:56;;;;;;;23.20;21.70;;;12.50;86.90;;;;;;5031348;28;20837;-75
2022/09/26 06:45:25;;;;;;;31.90;30.07;;;12.50;86.20;;;;;;5028581;28;20534;-74
2022/09/26 06:47:53;;;;;;;40.57;38.87;;;12.70;85.70;;;;;;5031007;28;20453;-74
2022/09/26 06:50:20;;;;;;;27.60;26.10;;;12.60;85.80;;;;;;5029496;28;20472;-76
2022/09/26 06:52:47;;;;;;;21.97;20.57;;;12.70;85.80;;;;;;5027596;28;20484;-75
2022/09/26 06:55:15;;;;;;;25.63;24.33;;;12.80;85.50;;;;;;5027285;28;20476;-74
2022/09/26 06:57:43;;;;;;;32.20;30.37;;;12.90;85.50;;;;;;5023545;28;20464;-74
2022/09/26 07:00:12;;;;;;;30.50;28.97;;;12.90;86.00;;;;;;5029619;28;20466;-71
2022/09/26 07:02:50;;;;;;;27.90;26.07;;;13.00;85.80;;;;;;5025359;28;20483;-70
2022/09/26 07:05:17;;;;;;;31.20;29.50;;;13.20;85.20;;;;;;5020872;28;20469;-71
2022/09/26 07:07:45;;;;;;;25.47;24.10;;;13.30;84.80;;;;;;5029179;28;20466;-72
2022/09/26 07:10:13;;;;;;;34.50;32.90;;;13.50;84.00;;;;;;5029135;28;20472;-72
2022/09/26 07:12:45;;;;;;;26.50;25.20;;;13.60;84.00;;;;;;5035513;28;20470;-72
2022/09/26 07:15:13;;;;;;;34.20;32.67;;;13.80;83.30;;;;;;5045521;28;20484;-73
2022/09/26 07:17:47;;;;;;;23.63;22.30;;;13.90;82.40;;;;;;5030745;28;20808;-73
2022/09/26 07:20:28;;;;;;;33.63;31.33;;;14.10;81.70;;;;;;5039472;28;20520;-73
2022/09/26 07:22:55;;;;;;;23.90;22.70;;;14.30;81.40;;;;;;5031690;28;20494;-71
2022/09/26 07:25:22;;;;;;;29.20;27.90;;;14.40;80.20;;;;;;5026918;28;20448;-72
2022/09/26 07:27:51;;;;;;;35.17;33.57;;;14.50;79.70;;;;;;5026736;28;20460;-71
2022/09/26 07:30:18;;;;;;;23.10;22.10;;;14.60;79.50;;;;;;5026687;28;20452;-71
2022/09/26 07:32:47;;;;;;;24.80;23.57;;;14.70;78.90;;;;;;5029622;28;20541;-70
2022/09/26 07:35:16;;;;;;;24.37;23.07;;;14.80;78.50;;;;;;5039619;28;20479;-71
2022/09/26 07:37:43;;;;;;;28.33;26.93;;;14.90;78.60;;;;;;5023615;28;20467;-71
2022/09/26 07:40:13;;;;;;;36.83;35.07;;;14.90;77.90;;;;;;5023972;28;20460;-70
2022/09/26 07:42:50;;;;;;;28.17;26.73;;;15.00;78.00;;;;;;5027569;28;20487;-72
2022/09/26 07:50:09;;;;;;;37.07;35.47;;;15.10;77.50;;;;;;5034474;28;20459;-72
2022/09/26 07:50:57;;;;;;;33.40;31.73;;;15.30;77.20;;;;;;5024990;28;20543;-71
2022/09/26 07:53:25;;;;;;;33.47;31.87;;;15.40;76.90;;;;;;5027358;28;20542;-70
2022/09/26 07:56:09;;;;;;;39.37;37.60;;;15.50;76.00;;;;;;5025930;28;21116;-70
2022/09/26 07:58:38;;;;;;;27.20;25.90;;;15.60;76.00;;;;;;5036835;28;20481;-70
2022/09/26 08:01:06;;;;;;;37.03;35.23;;;15.60;75.70;;;;;;5024637;28;20471;-70
2022/09/26 08:03:35;;;;;;;31.33;29.63;;;15.60;76.10;;;;;;5026465;28;20472;-71
2022/09/26 08:06:02;;;;;;;36.00;34.43;;;15.70;75.50;;;;;;5016686;28;20803;-72
2022/09/26 08:08:30;;;;;;;32.90;31.23;;;15.90;75.00;;;;;;5025253;28;20466;-73
2022/09/26 08:10:57;;;;;;;25.90;24.80;;;15.90;75.10;;;;;;5022153;28;20456;-71
2022/09/26 08:13:25;;;;;;;27.37;26.17;;;16.00;74.40;;;;;;5031181;28;20487;-71
2022/09/26 08:15:52;;;;;;;32.83;31.27;;;16.10;74.70;;;;;;5028267;28;20481;-71
2022/09/26 08:18:19;;;;;;;30.33;28.70;;;16.10;75.30;;;;;;5023750;28;20880;-71
2022/09/26 08:20:47;;;;;;;27.80;26.50;;;16.20;74.10;;;;;;5023946;28;20590;-71
2022/09/26 08:23:15;;;;;;;28.40;27.10;;;16.20;74.40;;;;;;5021722;28;20865;-70
2022/09/26 08:25:42;;;;;;;28.23;26.77;;;16.20;74.40;;;;;;5027207;28;20487;-71
2022/09/26 08:28:12;;;;;;;32.03;30.43;;;16.30;74.30;;;;;;5026633;28;20976;-70
2022/09/26 08:30:39;;;;;;;33.20;31.50;;;16.40;73.70;;;;;;5024780;28;20730;-71
2022/09/26 08:33:07;;;;;;;33.57;31.90;;;16.50;74.00;;;;;;5024326;28;20482;-71
2022/09/26 08:35:37;;;;;;;40.13;38.10;;;16.60;73.40;;;;;;5024685;28;20479;-71
2022/09/26 08:38:09;;;;;;;28.63;27.33;;;16.70;72.80;;;;;;5021499;28;20464;-71
2022/09/26 08:40:48;;;;;;;33.70;31.90;;;16.60;73.10;;;;;;5026462;28;20471;-73
2022/09/26 08:43:32;;;;;;;43.30;41.20;;;16.80;72.50;;;;;;5024681;28;21095;-75
2022/09/26 08:46:30;;;;;;;29.60;28.20;;;16.90;72.20;;;;;;5023508;28;20970;-74
2022/09/26 08:49:19;;;;;;;41.60;39.60;;;16.90;72.80;;;;;;5036171;28;20463;-75
2022/09/26 08:51:48;;;;;;;36.40;34.67;;;16.90;71.50;;;;;;5020379;28;20473;-73
2022/09/26 08:54:20;;;;;;;35.90;34.30;;;16.90;71.80;;;;;;5027508;28;20479;-72
2022/09/26 08:56:50;;;;;;;34.50;32.63;;;16.80;71.90;;;;;;5027377;28;20464;-72
2022/09/26 08:59:24;;;;;;;28.70;27.40;;;16.90;69.90;;;;;;5028154;28;20456;-74
2022/09/26 09:01:58;;;;;;;31.10;29.50;;;16.90;70.00;;;;;;5026888;28;20468;-72
2022/09/26 09:04:31;;;;;;;33.87;32.07;;;16.90;71.10;;;;;;5025808;28;20861;-73
2022/09/26 09:07:05;;;;;;;34.40;32.60;;;17.00;70.20;;;;;;5019981;28;20819;-73
2022/09/26 09:09:33;;;;;;;43.27;41.20;;;16.90;69.40;;;;;;5028748;28;20456;-73
2022/09/26 09:12:13;;;;;;;28.87;27.57;;;16.80;69.70;;;;;;5025240;28;20463;-73
2022/09/26 09:14:53;;;;;;;27.67;26.27;;;16.80;69.80;;;;;;5014052;28;20483;-73
2022/09/26 09:17:30;;;;;;;28.20;26.73;;;16.80;69.20;;;;;;5025485;28;20570;-75
2022/09/26 09:20:07;;;;;;;27.67;26.13;;;16.70;69.40;;;;;;5026710;28;20447;-73
2022/09/26 09:22:52;;;;;;;27.90;26.60;;;16.60;69.30;;;;;;5027163;28;20481;-74
2022/09/26 09:25:23;;;;;;;28.70;27.37;;;16.60;69.10;;;;;;5036391;28;20491;-74
2022/09/26 09:28:11;;;;;;;34.90;32.80;;;16.60;68.80;;;;;;5026310;28;20458;-75
2022/09/26 09:30:42;;;;;;;39.27;37.37;;;16.50;69.20;;;;;;5018670;28;20598;-73
2022/09/26 09:33:14;;;;;;;30.80;29.23;;;16.40;69.20;;;;;;5033575;28;20481;-75
2022/09/26 09:35:45;;;;;;;36.80;35.00;;;16.40;69.20;;;;;;5033035;28;21119;-75
2022/09/26 09:38:16;;;;;;;29.50;27.83;;;16.50;69.00;;;;;;5021835;28;21805;-77
2022/09/26 09:40:50;;;;;;;33.30;31.63;;;16.60;68.60;;;;;;5019385;28;20456;-72
2022/09/26 09:43:25;;;;;;;29.67;28.20;;;16.70;68.10;;;;;;5025587;28;20475;-72
2022/09/26 09:45:55;;;;;;;29.27;27.97;;;16.70;68.40;;;;;;5028184;28;20459;-76
2022/09/26 09:48:26;;;;;;;32.83;31.20;;;16.90;67.00;;;;;;5037818;28;20461;-76
2022/09/26 09:51:04;;;;;;;29.17;27.60;;;16.90;65.70;;;;;;5028305;28;20462;-73
2022/09/26 09:53:41;;;;;;;28.00;26.60;;;17.00;66.50;;;;;;5030054;28;20471;-73
2022/09/26 09:56:21;;;;;;;32.20;30.50;;;17.10;67.00;;;;;;5029252;28;20479;-73
2022/09/26 09:59:12;;;;;;;33.10;31.50;;;17.10;66.60;;;;;;5022289;28;20463;-74
2022/09/26 10:01:42;;;;;;;31.03;29.63;;;17.20;65.60;;;;;;5029848;28;20475;-74
2022/09/26 10:04:29;;;;;;;36.80;35.10;;;17.50;65.40;;;;;;5040598;28;20498;-73
2022/09/26 10:06:56;;;;;;;36.67;34.97;;;17.60;64.50;;;;;;5027430;28;20488;-73
2022/09/26 10:09:26;;;;;;;34.57;32.83;;;17.80;64.10;;;;;;5029008;28;20849;-76
2022/09/26 10:11:56;;;;;;;28.10;26.80;;;18.00;63.90;;;;;;5032560;28;20452;-75
2022/09/26 10:14:29;;;;;;;30.10;28.70;;;18.00;62.90;;;;;;5027508;28;20490;-75
2022/09/26 10:17:14;;;;;;;45.30;43.20;;;18.00;63.00;;;;;;5030612;28;20486;-72
2022/09/26 10:19:43;;;;;;;39.67;37.80;;;18.00;62.00;;;;;;5031291;28;21027;-71
2022/09/26 10:22:18;;;;;;;28.90;27.53;;;18.00;62.10;;;;;;5032329;28;21278;-72
2022/09/26 10:24:47;;;;;;;31.60;30.10;;;17.90;62.40;;;;;;5023720;28;20552;-74
2022/09/26 10:27:21;;;;;;;28.60;27.30;;;17.80;62.00;;;;;;5028516;28;20457;-72
2022/09/26 10:29:57;;;;;;;43.63;41.73;;;17.80;62.20;;;;;;5028392;28;20460;-72
2022/09/26 10:32:24;;;;;;;31.70;30.20;;;17.90;62.00;;;;;;5029350;28;20487;-72
2022/09/26 10:35:06;;;;;;;40.57;38.73;;;17.90;62.20;;;;;;5029541;28;20567;-74
2022/09/26 10:37:36;;;;;;;36.43;34.83;;;18.00;62.40;;;;;;5023760;28;20467;-73
2022/09/26 10:43:29;;;;;;;29.50;28.07;;;18.50;60.90;;;;;;5029893;28;20612;-73
2022/09/26 10:46:02;;;;;;;40.97;39.07;;;18.70;59.80;;;;;;5029474;28;20467;-73
2022/09/26 10:48:42;;;;;;;35.23;33.37;;;18.60;59.60;;;;;;5032602;28;20563;-72
2022/09/26 10:51:10;;;;;;;30.33;28.93;;;18.70;59.60;;;;;;5029504;28;20481;-72
2022/09/26 10:53:40;;;;;;;39.83;37.63;;;18.70;59.40;;;;;;5030018;28;20534;-73
2022/09/26 10:56:11;;;;;;;32.53;31.07;;;18.80;59.50;;;;;;5025860;28;20838;-72
2022/09/26 10:58:44;;;;;;;25.23;24.13;;;19.00;59.20;;;;;;5026382;28;20461;-72
2022/09/26 11:01:19;;;;;;;37.57;35.80;;;19.00;58.70;;;;;;5029581;28;20468;-74
2022/09/26 11:03:47;;;;;;;34.30;32.57;;;19.10;57.80;;;;;;5030452;28;20477;-73
2022/09/26 11:06:26;;;;;;;26.83;25.50;;;19.00;58.30;;;;;;5022208;28;20446;-73
2022/09/26 11:09:01;;;;;;;38.27;36.27;;;19.20;58.00;;;;;;5027210;28;20485;-72
2022/09/26 11:11:34;;;;;;;27.87;26.47;;;19.20;57.40;;;;;;5035829;28;20573;-72
2022/09/26 11:14:04;;;;;;;26.33;25.07;;;19.10;57.60;;;;;;5025056;28;20487;-74
2022/09/26 11:16:52;;;;;;;27.63;26.43;;;19.00;57.50;;;;;;5030370;28;20488;-74
2022/09/26 11:19:41;;;;;;;34.23;32.63;;;18.50;58.50;;;;;;5028671;28;20558;-73
2022/09/26 11:22:21;;;;;;;37.67;35.80;;;18.10;59.40;;;;;;5029563;28;20999;-74
2022/09/26 11:24:54;;;;;;;36.80;34.90;;;18.00;60.60;;;;;;5026114;28;20459;-75
2022/09/26 11:27:30;;;;;;;34.53;32.83;;;18.00;61.00;;;;;;5025106;28;20467;-74
2022/09/26 11:30:07;;;;;;;34.37;32.67;;;17.70;61.30;;;;;;5024748;28;20880;-75
2022/09/26 11:32:39;;;;;;;37.20;35.50;;;17.60;61.40;;;;;;5027134;28;20558;-74
2022/09/26 11:35:13;;;;;;;33.40;31.60;;;17.60;62.60;;;;;;5026068;28;20479;-77
2022/09/26 11:38:13;;;;;;;28.67;27.30;;;17.80;60.70;;;;;;5025258;28;20460;-78
2022/09/26 11:40:58;;;;;;;34.80;33.20;;;18.00;59.90;;;;;;5013868;28;20472;-76
2022/09/26 11:43:38;;;;;;;28.43;26.93;;;18.20;59.50;;;;;;5030588;28;20486;-76
2022/09/26 11:46:26;;;;;;;36.97;35.23;;;18.50;59.00;;;;;;5027579;28;20965;-78
2022/09/26 11:49:09;;;;;;;30.77;29.40;;;18.60;59.50;;;;;;5029414;28;20567;-74
2022/09/26 11:51:54;;;;;;;35.03;33.50;;;18.80;58.80;;;;;;5028342;28;20456;-76
2022/09/26 11:54:52;;;;;;;42.30;40.20;;;19.00;58.70;;;;;;5026825;28;20479;-77
2022/09/26 11:57:43;;;;;;;32.10;30.53;;;19.20;58.40;;;;;;5027356;28;20542;-73
2022/09/26 12:00:23;;;;;;;33.20;31.70;;;19.30;58.80;;;;;;5025224;28;20466;-73
2022/09/26 12:03:26;;;;;;;32.83;31.33;;;19.40;58.40;;;;;;5031268;28;20485;-74
2022/09/26 12:05:59;;;;;;;41.03;39.03;;;19.30;57.20;;;;;;5024124;28;20534;-74
2022/09/26 12:08:47;;;;;;;35.60;34.00;;;19.00;56.70;;;;;;5034350;28;20451;-73
2022/09/26 12:11:22;;;;;;;37.67;35.87;;;18.60;62.20;;;;;;5023582;28;20543;-73
2022/09/26 12:13:56;;;;;;;31.63;30.23;;;18.20;63.80;;;;;;5024583;28;20480;-71
2022/09/26 12:16:28;;;;;;;36.20;34.60;;;17.70;65.10;;;;;;5030226;28;20479;-73
2022/09/26 12:19:04;;;;;;;37.93;36.23;;;17.50;67.90;;;;;;5027061;28;20538;-74
2022/09/26 12:22:27;;;;;;;33.63;32.13;;;17.40;70.00;;;;;;5019945;28;20464;-73
2022/09/26 12:24:42;;;;;;;29.33;27.97;;;17.40;69.90;;;;;;5031036;28;21066;-74
2022/09/26 12:27:19;;;;;;;31.00;29.60;;;17.40;70.20;;;;;;5037157;28;20522;-73
2022/09/26 12:29:53;;;;;;;33.33;31.77;;;17.70;70.10;;;;;;5032383;28;20883;-73
2022/09/26 12:32:32;;;;;;;30.47;29.07;;;17.70;69.80;;;;;;5031076;28;20467;-72
2022/09/26 12:35:17;;;;;;;32.73;31.13;;;17.80;68.50;;;;;;5023326;28;20556;-72
2022/09/26 12:38:14;;;;;;;27.93;26.37;;;17.80;68.10;;;;;;5029224;28;20456;-73
2022/09/26 12:40:49;;;;;;;28.47;27.20;;;17.80;68.30;;;;;;5032491;28;20837;-74
2022/09/26 12:43:43;;;;;;;29.10;27.90;;;17.80;68.70;;;;;;5025951;28;21043;-75
2022/09/26 12:46:37;;;;;;;35.27;33.67;;;17.80;67.20;;;;;;5025664;28;20519;-76
2022/09/26 12:49:22;;;;;;;34.77;33.10;;;17.90;64.50;;;;;;5033309;28;20468;-74
2022/09/26 12:51:52;;;;;;;40.27;38.37;;;17.90;64.00;;;;;;5033245;28;20463;-74
2022/09/26 12:54:39;;;;;;;31.60;30.00;;;17.90;63.30;;;;;;5018181;28;20479;-72
2022/09/26 12:57:20;;;;;;;28.30;27.10;;;18.00;64.20;;;;;;5031009;28;20588;-73
2022/09/26 13:00:09;;;;;;;32.90;31.50;;;18.00;62.30;;;;;;5026914;28;20459;-73
2022/09/26 13:03:08;;;;;;;34.73;33.17;;;18.00;62.30;;;;;;5029391;28;21173;-73
2022/09/26 13:05:59;;;;;;;35.33;33.83;;;18.10;61.20;;;;;;5028115;28;20452;-73